sensor_id;sensor_type;location;lat;lon;timestamp;pressure;altitude;pressure_sealevel;temperature;humidity
76106;BME280;64832;45.274;5.880;2023-08-21T00:01:51;99286.97;;;27.52;54.36
76106;BME280;64832;45.274;5.880;2023-08-21T00:04:17;99286.66;;;27.54;54.18
76106;BME280;64832;45.274;5.880;2023-08-21T00:06:43;99289.72;;;27.52;54.19
76106;BME280;64832;45.274;5.880;2023-08-21T00:09:08;99291.63;;;27.52;53.99
76106;BME280;64832;45.274;5.880;2023-08-21T00:11:34;99287.78;;;27.53;54.08
76106;BME280;64832;45.274;5.880;2023-08-21T00:14:00;99282.28;;;27.53;54.27
76106;BME280;64832;45.274;5.880;2023-08-21T00:16:25;99287.78;;;27.53;54.05
76106;BME280;64832;45.274;5.880;2023-08-21T00:18:52;99285.88;;;27.53;54.27
76106;BME280;64832;45.274;5.880;2023-08-21T00:21:19;99285.88;;;27.53;54.14
76106;BME280;64832;45.274;5.880;2023-08-21T00:23:45;99287.78;;;27.53;54.18
76106;BME280;64832;45.274;5.880;2023-08-21T00:26:11;99288.59;;;27.53;54.00
76106;BME280;64832;45.274;5.880;2023-08-21T00:28:37;99289.41;;;27.54;53.99
76106;BME280;64832;45.274;5.880;2023-08-21T00:31:03;99294.63;;;27.55;54.25
76106;BME280;64832;45.274;5.880;2023-08-21T00:33:30;99289.41;;;27.54;54.13
76106;BME280;64832;45.274;5.880;2023-08-21T00:35:56;99282.50;;;27.56;53.97
76106;BME280;64832;45.274;5.880;2023-08-21T00:38:21;99278.13;;;27.55;53.91
76106;BME280;64832;45.274;5.880;2023-08-21T00:40:47;99278.97;;;27.56;53.73
76106;BME280;64832;45.274;5.880;2023-08-21T00:43:13;99283.63;;;27.55;54.18
76106;BME280;64832;45.274;5.880;2023-08-21T00:45:41;99280.88;;;27.55;54.06
76106;BME280;64832;45.274;5.880;2023-08-21T00:48:08;99285.25;;;27.56;53.91
76106;BME280;64832;45.274;5.880;2023-08-21T00:50:33;99283.34;;;27.57;53.89
76106;BME280;64832;45.274;5.880;2023-08-21T00:52:59;99288.00;;;27.56;54.23
76106;BME280;64832;45.274;5.880;2023-08-21T00:55:24;99287.22;;;27.56;54.03
76106;BME280;64832;45.274;5.880;2023-08-21T00:57:50;99288.31;;;27.55;53.92
76106;BME280;64832;45.274;5.880;2023-08-21T01:00:15;99294.34;;;27.57;54.05
76106;BME280;64832;45.274;5.880;2023-08-21T01:02:40;99286.09;;;27.57;53.67
76106;BME280;64832;45.274;5.880;2023-08-21T01:05:07;99295.16;;;27.57;53.84
76106;BME280;64832;45.274;5.880;2023-08-21T01:07:38;99284.47;;;27.56;53.58
76106;BME280;64832;45.274;5.880;2023-08-21T01:10:07;99295.72;;;27.54;54.00
76106;BME280;64832;45.274;5.880;2023-08-21T01:13:00;99288.31;;;27.55;54.05
76106;BME280;64832;45.274;5.880;2023-08-21T01:15:28;99300.41;;;27.54;53.64
76106;BME280;64832;45.274;5.880;2023-08-21T01:17:54;99300.13;;;27.55;53.92
76106;BME280;64832;45.274;5.880;2023-08-21T01:20:20;99292.16;;;27.54;53.61
76106;BME280;64832;45.274;5.880;2023-08-21T01:22:45;99302.06;;;27.55;53.79
76106;BME280;64832;45.274;5.880;2023-08-21T01:25:11;99294.34;;;27.57;53.77
76106;BME280;64832;45.274;5.880;2023-08-21T01:27:38;99308.06;;;27.57;53.80
76106;BME280;64832;45.274;5.880;2023-08-21T01:30:05;99290.75;;;27.56;53.73
76106;BME280;64832;45.274;5.880;2023-08-21T01:32:59;99308.63;;;27.59;53.65
76106;BME280;64832;45.274;5.880;2023-08-21T01:35:26;99308.06;;;27.57;53.83
76106;BME280;64832;45.274;5.880;2023-08-21T01:37:52;99303.41;;;27.57;54.10
76106;BME280;64832;45.274;5.880;2023-08-21T01:40:22;99306.16;;;27.57;53.66
76106;BME280;64832;45.274;5.880;2023-08-21T01:42:48;99308.91;;;27.57;53.95
76106;BME280;64832;45.274;5.880;2023-08-21T01:45:13;99313.31;;;27.58;53.80
76106;BME280;64832;45.274;5.880;2023-08-21T01:47:39;99316.88;;;27.59;53.67
76106;BME280;64832;45.274;5.880;2023-08-21T01:50:05;99316.88;;;27.59;53.89
76106;BME280;64832;45.274;5.880;2023-08-21T01:52:30;99323.16;;;27.59;53.93
76106;BME280;64832;45.274;5.880;2023-08-21T01:54:56;99327.88;;;27.59;53.47
76106;BME280;64832;45.274;5.880;2023-08-21T01:57:21;99320.41;;;27.59;53.93
76106;BME280;64832;45.274;5.880;2023-08-21T01:59:46;99321.25;;;27.60;53.57
76106;BME280;64832;45.274;5.880;2023-08-21T02:02:12;99315.78;;;27.55;53.68
76106;BME280;64832;45.274;5.880;2023-08-21T02:04:37;99332.22;;;27.60;53.64
76106;BME280;64832;45.274;5.880;2023-08-21T02:07:02;99322.38;;;27.59;53.42
76106;BME280;64832;45.274;5.880;2023-08-21T02:09:28;99327.56;;;27.60;53.75
76106;BME280;64832;45.274;5.880;2023-08-21T02:11:53;99328.41;;;27.61;53.45
76106;BME280;64832;45.274;5.880;2023-08-21T02:14:18;99320.41;;;27.59;53.49
76106;BME280;64832;45.274;5.880;2023-08-21T02:16:44;99329.47;;;27.60;53.51
76106;BME280;64832;45.274;5.880;2023-08-21T02:19:09;99327.56;;;27.60;53.78
76106;BME280;64832;45.274;5.880;2023-08-21T02:21:35;99333.88;;;27.61;53.78
76106;BME280;64832;45.274;5.880;2023-08-21T02:24:01;99332.22;;;27.60;53.70
76106;BME280;64832;45.274;5.880;2023-08-21T02:26:27;99330.31;;;27.60;53.87
76106;BME280;64832;45.274;5.880;2023-08-21T02:28:52;99334.97;;;27.60;53.72
76106;BME280;64832;45.274;5.880;2023-08-21T02:31:18;99342.13;;;27.61;53.53
76106;BME280;64832;45.274;5.880;2023-08-21T02:33:44;99339.38;;;27.61;53.65
76106;BME280;64832;45.274;5.880;2023-08-21T02:36:10;99331.97;;;27.61;53.40
76106;BME280;64832;45.274;5.880;2023-08-21T02:38:35;99334.97;;;27.60;53.61
76106;BME280;64832;45.274;5.880;2023-08-21T02:41:00;99332.75;;;27.62;53.66
76106;BME280;64832;45.274;5.880;2023-08-21T02:43:26;99333.88;;;27.61;53.73
76106;BME280;64832;45.274;5.880;2023-08-21T02:45:51;99341.00;;;27.62;53.45
76106;BME280;64832;45.274;5.880;2023-08-21T02:48:17;99338.00;;;27.63;53.68
76106;BME280;64832;45.274;5.880;2023-08-21T02:50:42;99339.91;;;27.63;53.77
76106;BME280;64832;45.274;5.880;2023-08-21T02:53:07;99341.00;;;27.62;53.62
76106;BME280;64832;45.274;5.880;2023-08-21T02:55:33;99335.50;;;27.62;53.45
76106;BME280;64832;45.274;5.880;2023-08-21T02:57:58;99340.75;;;27.63;53.35
76106;BME280;64832;45.274;5.880;2023-08-21T03:00:24;99337.16;;;27.63;53.49
76106;BME280;64832;45.274;5.880;2023-08-21T03:02:49;99339.09;;;27.62;53.34
76106;BME280;64832;45.274;5.880;2023-08-21T03:05:15;99339.91;;;27.63;53.24
76106;BME280;64832;45.274;5.880;2023-08-21T03:07:40;99339.09;;;27.62;53.40
76106;BME280;64832;45.274;5.880;2023-08-21T03:10:06;99334.72;;;27.61;53.34
76106;BME280;64832;45.274;5.880;2023-08-21T03:12:32;99338.25;;;27.62;53.21
76106;BME280;64832;45.274;5.880;2023-08-21T03:14:58;99340.75;;;27.63;53.72
76106;BME280;64832;45.274;5.880;2023-08-21T03:17:24;99339.09;;;27.62;53.34
76106;BME280;64832;45.274;5.880;2023-08-21T03:19:49;99339.91;;;27.63;53.62
76106;BME280;64832;45.274;5.880;2023-08-21T03:22:15;99341.56;;;27.64;52.61
76106;BME280;64832;45.274;5.880;2023-08-21T03:24:40;99341.69;;;27.44;51.24
76106;BME280;64832;45.274;5.880;2023-08-21T03:27:05;99351.16;;;27.22;51.08
76106;BME280;64832;45.274;5.880;2023-08-21T03:29:31;99354.03;;;26.97;51.28
76106;BME280;64832;45.274;5.880;2023-08-21T03:31:57;99351.66;;;26.70;51.48
76106;BME280;64832;45.274;5.880;2023-08-21T03:34:23;99357.75;;;26.52;51.93
76106;BME280;64832;45.274;5.880;2023-08-21T03:36:48;99358.88;;;26.36;52.32
76106;BME280;64832;45.274;5.880;2023-08-21T03:39:13;99356.72;;;26.23;52.58
76106;BME280;64832;45.274;5.880;2023-08-21T03:41:39;99360.25;;;26.08;52.44
76106;BME280;64832;45.274;5.880;2023-08-21T03:44:04;99353.44;;;25.96;52.81
76106;BME280;64832;45.274;5.880;2023-08-21T03:46:30;99352.06;;;25.83;52.77
76106;BME280;64832;45.274;5.880;2023-08-21T03:48:55;99360.28;;;25.73;52.65
76106;BME280;64832;45.274;5.880;2023-08-21T03:51:20;99361.09;;;25.63;53.33
76106;BME280;64832;45.274;5.880;2023-08-21T03:53:46;99361.63;;;25.55;53.44
76106;BME280;64832;45.274;5.880;2023-08-21T03:56:11;99360.47;;;25.46;54.22
76106;BME280;64832;45.274;5.880;2023-08-21T03:58:36;99364.34;;;25.40;54.36
76106;BME280;64832;45.274;5.880;2023-08-21T04:01:02;99359.66;;;25.36;54.31
76106;BME280;64832;45.274;5.880;2023-08-21T04:03:27;99367.31;;;25.29;54.81
76106;BME280;64832;45.274;5.880;2023-08-21T04:05:53;99369.75;;;25.25;54.85
76106;BME280;64832;45.274;5.880;2023-08-21T04:08:19;99376.06;;;25.21;54.86
76106;BME280;64832;45.274;5.880;2023-08-21T04:10:44;99374.13;;;25.16;55.23
76106;BME280;64832;45.274;5.880;2023-08-21T04:13:10;99370.53;;;25.10;55.32
76106;BME280;64832;45.274;5.880;2023-08-21T04:15:35;99370.81;;;25.04;55.80
76106;BME280;64832;45.274;5.880;2023-08-21T04:18:00;99369.41;;;24.96;55.89
76106;BME280;64832;45.274;5.880;2023-08-21T04:20:26;99374.31;;;24.94;56.10
76106;BME280;64832;45.274;5.880;2023-08-21T04:22:51;99373.47;;;24.89;56.44
76106;BME280;64832;45.274;5.880;2023-08-21T04:25:17;99369.38;;;24.86;56.43
76106;BME280;64832;45.274;5.880;2023-08-21T04:27:42;99370.72;;;24.84;56.31
76106;BME280;64832;45.274;5.880;2023-08-21T04:30:09;99387.94;;;24.79;56.52
76106;BME280;64832;45.274;5.880;2023-08-21T04:32:34;99383.22;;;24.75;56.64
76106;BME280;64832;45.274;5.880;2023-08-21T04:35:00;99386.50;;;24.72;56.78
76106;BME280;64832;45.274;5.880;2023-08-21T04:37:26;99388.13;;;24.68;56.99
76106;BME280;64832;45.274;5.880;2023-08-21T04:39:52;99383.41;;;24.58;56.90
76106;BME280;64832;45.274;5.880;2023-08-21T04:42:18;99387.56;;;24.61;56.99
76106;BME280;64832;45.274;5.880;2023-08-21T04:44:43;99393.28;;;24.59;56.74
76106;BME280;64832;45.274;5.880;2023-08-21T04:47:21;99396.56;;;24.61;56.61
76106;BME280;64832;45.274;5.880;2023-08-21T04:49:48;99399.31;;;24.61;56.69
76106;BME280;64832;45.274;5.880;2023-08-21T04:52:14;99401.25;;;24.61;56.57
76106;BME280;64832;45.274;5.880;2023-08-21T04:54:39;99403.41;;;24.59;56.70
76106;BME280;64832;45.274;5.880;2023-08-21T04:57:05;99405.28;;;24.53;56.96
76106;BME280;64832;45.274;5.880;2023-08-21T04:59:30;99410.72;;;24.48;56.93
76106;BME280;64832;45.274;5.880;2023-08-21T05:01:55;99411.78;;;24.47;57.08
76106;BME280;64832;45.274;5.880;2023-08-21T05:04:21;99409.06;;;24.47;57.40
76106;BME280;64832;45.274;5.880;2023-08-21T05:06:46;99417.81;;;24.44;57.57
76106;BME280;64832;45.274;5.880;2023-08-21T05:09:12;99428.75;;;24.44;57.51
76106;BME280;64832;45.274;5.880;2023-08-21T05:11:37;99422.16;;;24.40;57.86
76106;BME280;64832;45.274;5.880;2023-08-21T05:14:02;99428.69;;;24.39;57.61
76106;BME280;64832;45.274;5.880;2023-08-21T05:16:28;99435.81;;;24.40;57.56
76106;BME280;64832;45.274;5.880;2023-08-21T05:18:53;99422.38;;;24.33;57.78
76106;BME280;64832;45.274;5.880;2023-08-21T05:21:19;99432.81;;;24.41;57.77
76106;BME280;64832;45.274;5.880;2023-08-21T05:23:44;99441.59;;;24.43;58.05
76106;BME280;64832;45.274;5.880;2023-08-21T05:26:09;99436.97;;;24.44;58.07
76106;BME280;64832;45.274;5.880;2023-08-21T05:28:35;99441.88;;;24.47;57.93
76106;BME280;64832;45.274;5.880;2023-08-21T05:31:00;99434.47;;;24.42;57.97
76106;BME280;64832;45.274;5.880;2023-08-21T05:33:25;99446.56;;;24.46;58.00
76106;BME280;64832;45.274;5.880;2023-08-21T05:35:51;99431.72;;;24.37;58.45
76106;BME280;64832;45.274;5.880;2023-08-21T05:38:16;99444.88;;;24.45;58.39
76106;BME280;64832;45.274;5.880;2023-08-21T05:40:41;99446.78;;;24.45;58.43
76106;BME280;64832;45.274;5.880;2023-08-21T05:43:08;99449.00;;;24.48;58.36
76106;BME280;64832;45.274;5.880;2023-08-21T05:45:33;99452.03;;;24.46;58.63
76106;BME280;64832;45.274;5.880;2023-08-21T05:47:58;99453.66;;;24.47;58.55
76106;BME280;64832;45.274;5.880;2023-08-21T05:50:24;99462.69;;;24.48;58.44
76106;BME280;64832;45.274;5.880;2023-08-21T05:52:49;99461.84;;;24.47;58.79
76106;BME280;64832;45.274;5.880;2023-08-21T05:55:14;99467.06;;;24.49;58.66
76106;BME280;64832;45.274;5.880;2023-08-21T05:57:40;99463.00;;;24.51;58.95
76106;BME280;64832;45.274;5.880;2023-08-21T06:00:06;99460.81;;;24.53;58.86
76106;BME280;64832;45.274;5.880;2023-08-21T06:02:34;99464.94;;;24.56;59.08
76106;BME280;64832;45.274;5.880;2023-08-21T06:05:01;99459.22;;;24.58;58.69
76106;BME280;64832;45.274;5.880;2023-08-21T06:07:26;99461.41;;;24.61;58.79
76106;BME280;64832;45.274;5.880;2023-08-21T06:09:51;99465.53;;;24.63;58.99
76106;BME280;64832;45.274;5.880;2023-08-21T06:12:18;99464.19;;;24.66;59.05
76106;BME280;64832;45.274;5.880;2023-08-21T06:14:44;99468.53;;;24.67;58.86
76106;BME280;64832;45.274;5.880;2023-08-21T06:17:09;99464.22;;;24.71;58.35
76106;BME280;64832;45.274;5.880;2023-08-21T06:19:35;99474.88;;;24.72;58.39
76106;BME280;64832;45.274;5.880;2023-08-21T06:22:00;99473.53;;;24.75;58.76
76106;BME280;64832;45.274;5.880;2023-08-21T06:24:26;99467.81;;;24.76;58.38
76106;BME280;64832;45.274;5.880;2023-08-21T06:26:51;99473.59;;;24.80;58.43
76106;BME280;64832;45.274;5.880;2023-08-21T06:29:17;99477.72;;;24.82;58.18
76106;BME280;64832;45.274;5.880;2023-08-21T06:31:43;99468.13;;;24.80;57.81
76106;BME280;64832;45.274;5.880;2023-08-21T06:34:09;99477.47;;;24.89;57.77
76106;BME280;64832;45.274;5.880;2023-08-21T06:36:34;99476.13;;;24.91;57.53
76106;BME280;64832;45.274;5.880;2023-08-21T06:38:59;99473.97;;;24.93;57.67
76106;BME280;64832;45.274;5.880;2023-08-21T06:41:25;99462.72;;;24.90;57.39
76106;BME280;64832;45.274;5.880;2023-08-21T06:43:50;99470.13;;;24.99;57.36
76106;BME280;64832;45.274;5.880;2023-08-21T06:46:16;99480.00;;;25.00;57.67
76106;BME280;64832;45.274;5.880;2023-08-21T06:48:41;99477.81;;;25.02;57.58
76106;BME280;64832;45.274;5.880;2023-08-21T06:51:07;99479.78;;;25.07;57.47
76106;BME280;64832;45.274;5.880;2023-08-21T06:53:32;99477.59;;;25.09;57.78
76106;BME280;64832;45.274;5.880;2023-08-21T06:55:58;99477.06;;;25.12;57.95
76106;BME280;64832;45.274;5.880;2023-08-21T06:58:23;99486.66;;;25.15;57.77
76106;BME280;64832;45.274;5.880;2023-08-21T07:00:48;99470.53;;;25.18;57.65
76106;BME280;64832;45.274;5.880;2023-08-21T07:03:14;99480.94;;;25.21;57.69
76106;BME280;64832;45.274;5.880;2023-08-21T07:05:39;99479.03;;;25.27;57.54
76106;BME280;64832;45.274;5.880;2023-08-21T07:08:05;99477.41;;;25.31;57.32
76106;BME280;64832;45.274;5.880;2023-08-21T07:10:35;99477.41;;;25.36;57.25
76106;BME280;64832;45.274;5.880;2023-08-21T07:13:01;99468.13;;;25.37;57.20
76106;BME280;64832;45.274;5.880;2023-08-21T07:15:26;99473.06;;;25.40;57.10
76106;BME280;64832;45.274;5.880;2023-08-21T07:17:51;99470.63;;;25.43;57.00
76106;BME280;64832;45.274;5.880;2023-08-21T07:20:17;99462.94;;;25.45;56.95
76106;BME280;64832;45.274;5.880;2023-08-21T07:22:42;99464.34;;;25.48;57.06
76106;BME280;64832;45.274;5.880;2023-08-21T07:25:08;99463.00;;;25.50;56.57
76106;BME280;64832;45.274;5.880;2023-08-21T07:27:33;99469.00;;;25.52;56.75
76106;BME280;64832;45.274;5.880;2023-08-21T07:29:59;99460.53;;;25.54;56.70
76106;BME280;64832;45.274;5.880;2023-08-21T07:32:24;99464.66;;;25.56;56.55
76106;BME280;64832;45.274;5.880;2023-08-21T07:34:53;99455.06;;;25.59;56.48
76106;BME280;64832;45.274;5.880;2023-08-21T07:37:22;99465.75;;;25.60;56.40
76106;BME280;64832;45.274;5.880;2023-08-21T07:39:47;99463.59;;;25.62;56.33
76106;BME280;64832;45.274;5.880;2023-08-21T07:42:13;99454.53;;;25.62;56.04
76106;BME280;64832;45.274;5.880;2023-08-21T07:44:41;99456.72;;;25.65;56.52
76106;BME280;64832;45.274;5.880;2023-08-21T07:47:06;99465.50;;;25.67;56.02
76106;BME280;64832;45.274;5.880;2023-08-21T07:49:32;99457.00;;;25.68;56.21
76106;BME280;64832;45.274;5.880;2023-08-21T07:51:58;99459.47;;;25.70;56.03
76106;BME280;64832;45.274;5.880;2023-08-21T07:54:23;99454.81;;;25.71;55.88
76106;BME280;64832;45.274;5.880;2023-08-21T07:56:50;99451.81;;;25.72;55.97
76106;BME280;64832;45.274;5.880;2023-08-21T07:59:15;99457.03;;;25.74;56.07
76106;BME280;64832;45.274;5.880;2023-08-21T08:01:40;99456.75;;;25.75;55.95
76106;BME280;64832;45.274;5.880;2023-08-21T08:04:06;99452.91;;;25.76;55.84
76106;BME280;64832;45.274;5.880;2023-08-21T08:06:31;99455.38;;;25.78;55.89
76106;BME280;64832;45.274;5.880;2023-08-21T08:08:56;99452.38;;;25.79;55.80
76106;BME280;64832;45.274;5.880;2023-08-21T08:11:22;99445.78;;;25.80;55.79
76106;BME280;64832;45.274;5.880;2023-08-21T08:13:48;99448.28;;;25.82;55.60
76106;BME280;64832;45.274;5.880;2023-08-21T08:16:13;99445.25;;;25.83;55.65
76106;BME280;64832;45.274;5.880;2023-08-21T08:18:39;99444.41;;;25.83;55.51
76106;BME280;64832;45.274;5.880;2023-08-21T08:21:04;99445.00;;;25.85;55.49
76106;BME280;64832;45.274;5.880;2023-08-21T08:23:29;99436.75;;;25.85;55.38
76106;BME280;64832;45.274;5.880;2023-08-21T08:25:55;99430.47;;;25.84;55.50
76106;BME280;64832;45.274;5.880;2023-08-21T08:28:20;99437.31;;;25.87;55.52
76106;BME280;64832;45.274;5.880;2023-08-21T08:30:46;99432.38;;;25.89;55.21
76106;BME280;64832;45.274;5.880;2023-08-21T08:33:11;99424.16;;;25.89;55.30
76106;BME280;64832;45.274;5.880;2023-08-21T08:35:37;99422.47;;;25.88;55.10
76106;BME280;64832;45.274;5.880;2023-08-21T08:38:02;99431.81;;;25.92;55.34
76106;BME280;64832;45.274;5.880;2023-08-21T08:40:28;99420.88;;;25.92;55.20
76106;BME280;64832;45.274;5.880;2023-08-21T08:42:53;99418.13;;;25.92;55.04
76106;BME280;64832;45.274;5.880;2023-08-21T08:45:30;99410.44;;;25.94;54.88
76106;BME280;64832;45.274;5.880;2023-08-21T08:47:59;99411.25;;;25.94;55.17
76106;BME280;64832;45.274;5.880;2023-08-21T08:50:30;99403.03;;;25.94;55.02
76106;BME280;64832;45.274;5.880;2023-08-21T08:52:57;99400.03;;;25.96;55.15
76106;BME280;64832;45.274;5.880;2023-08-21T08:55:23;99409.06;;;25.96;55.17
76106;BME280;64832;45.274;5.880;2023-08-21T08:57:49;99405.78;;;25.99;55.08
76106;BME280;64832;45.274;5.880;2023-08-21T09:00:15;99397.56;;;25.99;55.31
76106;BME280;64832;45.274;5.880;2023-08-21T09:02:41;99401.94;;;26.00;55.19
76106;BME280;64832;45.274;5.880;2023-08-21T09:05:06;99400.56;;;26.03;55.06
76106;BME280;64832;45.274;5.880;2023-08-21T09:07:33;99390.44;;;26.03;54.98
76106;BME280;64832;45.274;5.880;2023-08-21T09:09:58;99390.97;;;26.05;55.05
76106;BME280;64832;45.274;5.880;2023-08-21T09:12:24;99389.06;;;26.06;55.45
76106;BME280;64832;45.274;5.880;2023-08-21T09:14:49;99385.50;;;26.05;55.05
76106;BME280;64832;45.274;5.880;2023-08-21T09:17:15;99382.50;;;26.07;55.22
76106;BME280;64832;45.274;5.880;2023-08-21T09:19:41;99381.13;;;26.09;55.42
76106;BME280;64832;45.274;5.880;2023-08-21T09:22:17;99378.63;;;26.13;55.21
76106;BME280;64832;45.274;5.880;2023-08-21T09:25:05;99374.81;;;26.14;55.27
76106;BME280;64832;45.274;5.880;2023-08-21T09:27:33;99375.66;;;26.14;55.06
76106;BME280;64832;45.274;5.880;2023-08-21T09:29:59;99362.72;;;26.10;55.21
76106;BME280;64832;45.274;5.880;2023-08-21T09:32:26;99368.25;;;26.15;55.25
76106;BME280;64832;45.274;5.880;2023-08-21T09:34:51;99365.75;;;26.18;55.14
76106;BME280;64832;45.274;5.880;2023-08-21T09:37:17;99366.06;;;26.17;55.33
76106;BME280;64832;45.274;5.880;2023-08-21T09:39:45;99367.41;;;26.19;55.22
76106;BME280;64832;45.274;5.880;2023-08-21T09:42:11;99361.94;;;26.19;55.13
76106;BME280;64832;45.274;5.880;2023-08-21T09:44:40;99355.34;;;26.20;55.08
76106;BME280;64832;45.274;5.880;2023-08-21T09:47:11;99347.38;;;26.19;55.27
76106;BME280;64832;45.274;5.880;2023-08-21T09:49:38;99352.06;;;26.18;55.12
76106;BME280;64832;45.274;5.880;2023-08-21T09:52:08;99353.69;;;26.19;55.11
76106;BME280;64832;45.274;5.880;2023-08-21T09:54:41;99344.38;;;26.20;55.03
76106;BME280;64832;45.274;5.880;2023-08-21T09:57:06;99335.34;;;26.20;55.05
76106;BME280;64832;45.274;5.880;2023-08-21T09:59:32;99330.41;;;26.17;54.93
76106;BME280;64832;45.274;5.880;2023-08-21T10:02:01;99341.09;;;26.23;54.92
76106;BME280;64832;45.274;5.880;2023-08-21T10:04:29;99334.50;;;26.24;55.07
76106;BME280;64832;45.274;5.880;2023-08-21T10:06:56;99332.03;;;26.23;54.92
76106;BME280;64832;45.274;5.880;2023-08-21T10:09:23;99329.00;;;26.24;54.84
76106;BME280;64832;45.274;5.880;2023-08-21T10:11:49;99325.44;;;26.24;54.68
76106;BME280;64832;45.274;5.880;2023-08-21T10:14:16;99324.06;;;26.26;54.85
76106;BME280;64832;45.274;5.880;2023-08-21T10:16:41;99321.06;;;26.28;54.73
76106;BME280;64832;45.274;5.880;2023-08-21T10:19:07;99313.91;;;26.27;54.79
76106;BME280;64832;45.274;5.880;2023-08-21T10:21:36;99312.00;;;26.27;54.80
76106;BME280;64832;45.274;5.880;2023-08-21T10:24:02;99312.53;;;26.30;54.89
76106;BME280;64832;45.274;5.880;2023-08-21T10:26:28;99312.53;;;26.30;54.78
76106;BME280;64832;45.274;5.880;2023-08-21T10:28:59;99307.03;;;26.30;54.82
76106;BME280;64832;45.274;5.880;2023-08-21T10:31:36;99301.03;;;26.27;54.77
76106;BME280;64832;45.274;5.880;2023-08-21T10:34:10;99307.03;;;26.30;54.76
76106;BME280;64832;45.274;5.880;2023-08-21T10:39:26;99298.81;;;26.30;54.67
76106;BME280;64832;45.274;5.880;2023-08-21T10:41:59;99292.25;;;26.31;54.88
76106;BME280;64832;45.274;5.880;2023-08-21T10:44:46;99291.16;;;26.32;54.84
76106;BME280;64832;45.274;5.880;2023-08-21T10:49:54;99276.63;;;26.31;54.39
76106;BME280;64832;45.274;5.880;2023-08-21T10:54:53;99287.59;;;26.31;54.59
76106;BME280;64832;45.274;5.880;2023-08-21T10:57:19;99277.44;;;26.32;54.77
76106;BME280;64832;45.274;5.880;2023-08-21T10:59:59;99281.53;;;26.34;54.65
76106;BME280;64832;45.274;5.880;2023-08-21T11:02:26;99274.41;;;26.33;54.66
76106;BME280;64832;45.274;5.880;2023-08-21T11:04:52;99274.16;;;26.35;54.54
76106;BME280;64832;45.274;5.880;2023-08-21T11:07:18;99266.72;;;26.35;54.59
76106;BME280;64832;45.274;5.880;2023-08-21T11:09:44;99268.38;;;26.36;54.42
76106;BME280;64832;45.274;5.880;2023-08-21T11:12:12;99262.59;;;26.38;54.51
76106;BME280;64832;45.274;5.880;2023-08-21T11:14:38;99265.31;;;26.38;54.40
76106;BME280;64832;45.274;5.880;2023-08-21T11:17:04;99255.72;;;26.40;54.60
76106;BME280;64832;45.274;5.880;2023-08-21T11:19:33;99259.28;;;26.41;54.56
76106;BME280;64832;45.274;5.880;2023-08-21T11:21:59;99259.84;;;26.43;54.29
76106;BME280;64832;45.274;5.880;2023-08-21T11:27:17;99251.31;;;26.44;54.56
76106;BME280;64832;45.274;5.880;2023-08-21T11:29:43;99252.16;;;26.45;54.66
76106;BME280;64832;45.274;5.880;2023-08-21T11:32:13;99256.50;;;26.46;54.54
76106;BME280;64832;45.274;5.880;2023-08-21T11:34:40;99236.50;;;26.40;54.53
76106;BME280;64832;45.274;5.880;2023-08-21T11:37:06;99246.38;;;26.46;54.70
76106;BME280;64832;45.274;5.880;2023-08-21T11:39:54;99252.13;;;26.50;54.79
76106;BME280;64832;45.274;5.880;2023-08-21T11:42:21;99247.72;;;26.49;54.88
76106;BME280;64832;45.274;5.880;2023-08-21T11:44:50;99240.06;;;26.51;55.11
76106;BME280;64832;45.274;5.880;2023-08-21T11:47:17;99238.09;;;26.51;55.06
76106;BME280;64832;45.274;5.880;2023-08-21T11:49:44;99234.56;;;26.51;54.95
76106;BME280;64832;45.274;5.880;2023-08-21T11:52:13;99233.44;;;26.52;55.19
76106;BME280;64832;45.274;5.880;2023-08-21T11:54:39;99237.00;;;26.52;55.18
76106;BME280;64832;45.274;5.880;2023-08-21T11:57:13;99230.13;;;26.55;55.06
76106;BME280;64832;45.274;5.880;2023-08-21T11:59:39;99228.53;;;26.54;55.07
76106;BME280;64832;45.274;5.880;2023-08-21T12:02:16;99220.00;;;26.55;55.03
76106;BME280;64832;45.274;5.880;2023-08-21T12:04:42;99217.25;;;26.55;55.21
76106;BME280;64832;45.274;5.880;2023-08-21T12:07:07;99212.59;;;26.56;55.28
76106;BME280;64832;45.274;5.880;2023-08-21T12:09:33;99212.28;;;26.57;55.29
76106;BME280;64832;45.274;5.880;2023-08-21T12:11:58;99207.63;;;26.58;55.31
76106;BME280;64832;45.274;5.880;2023-08-21T12:14:24;99196.66;;;26.58;55.29
76106;BME280;64832;45.274;5.880;2023-08-21T12:16:49;99195.56;;;26.59;55.52
76106;BME280;64832;45.274;5.880;2023-08-21T12:19:15;99195.25;;;26.60;55.61
76106;BME280;64832;45.274;5.880;2023-08-21T12:21:40;99188.69;;;26.61;56.18
76106;BME280;64832;45.274;5.880;2023-08-21T12:24:06;99185.94;;;26.61;56.48
76106;BME280;64832;45.274;5.880;2023-08-21T12:26:32;99177.41;;;26.63;57.06
76106;BME280;64832;45.274;5.880;2023-08-21T12:28:58;99178.22;;;26.63;57.64
76106;BME280;64832;45.274;5.880;2023-08-21T12:31:23;99170.53;;;26.65;57.97
76106;BME280;64832;45.274;5.880;2023-08-21T12:33:49;99169.44;;;26.66;58.71
76106;BME280;64832;45.274;5.880;2023-08-21T12:36:14;99162.03;;;26.67;58.67
76106;BME280;64832;45.274;5.880;2023-08-21T12:38:40;99165.88;;;26.66;57.82
76106;BME280;64832;45.274;5.880;2023-08-21T12:41:05;99159.28;;;26.67;57.78
76106;BME280;64832;45.274;5.880;2023-08-21T12:43:30;99155.41;;;26.68;57.89
76106;BME280;64832;45.274;5.880;2023-08-21T12:45:56;99148.00;;;26.68;58.16
76106;BME280;64832;45.274;5.880;2023-08-21T12:48:22;99147.75;;;26.70;57.84
76106;BME280;64832;45.274;5.880;2023-08-21T12:50:47;99147.75;;;26.70;57.94
76106;BME280;64832;45.274;5.880;2023-08-21T12:53:13;99143.88;;;26.71;58.08
76106;BME280;64832;45.274;5.880;2023-08-21T12:55:38;99140.03;;;26.72;57.89
76106;BME280;64832;45.274;5.880;2023-08-21T12:58:03;99135.94;;;26.69;57.79
76106;BME280;64832;45.274;5.880;2023-08-21T13:00:29;99145.00;;;26.70;57.98
76106;BME280;64832;45.274;5.880;2023-08-21T13:02:54;99141.91;;;26.76;58.08
76106;BME280;64832;45.274;5.880;2023-08-21T13:05:20;99143.56;;;26.77;58.10
76106;BME280;64832;45.274;5.880;2023-08-21T13:07:46;99138.94;;;26.78;58.38